createdAt,value
2023-05-11T00:01:19.278Z,3.40
2023-05-11T00:05:19.695Z,3.40
2023-05-11T00:08:46.507Z,3.10
2023-05-11T00:12:18.646Z,4.90
2023-05-11T00:15:57.726Z,5.60
2023-05-11T00:19:06.503Z,6.00
2023-05-11T00:22:16.035Z,5.60
2023-05-11T00:25:15.100Z,6.00
2023-05-11T00:28:42.588Z,6.10
2023-05-11T00:32:09.634Z,5.00
2023-05-11T00:35:35.957Z,5.40
2023-05-11T00:38:03.711Z,6.10
2023-05-11T00:40:32.001Z,6.50
2023-05-11T00:42:58.975Z,6.60
2023-05-11T00:45:26.767Z,6.40
2023-05-11T00:47:53.563Z,5.70
2023-05-11T00:50:22.800Z,5.90
2023-05-11T00:52:51.647Z,5.40
2023-05-11T00:55:20.935Z,6.40
2023-05-11T00:57:47.879Z,6.00
2023-05-11T01:00:18.831Z,6.30
2023-05-11T01:02:46.034Z,6.30
2023-05-11T01:05:13.002Z,6.20
2023-05-11T01:08:02.070Z,6.70
2023-05-11T01:10:40.732Z,6.10
2023-05-11T01:13:27.759Z,7.40
2023-05-11T01:15:56.501Z,6.20
2023-05-11T01:18:40.794Z,6.10
2023-05-11T01:21:14.632Z,6.40
2023-05-11T01:23:59.454Z,6.90
2023-05-11T01:26:39.748Z,6.50
2023-05-11T01:29:29.390Z,6.20
2023-05-11T01:31:59.344Z,6.00
2023-05-11T01:34:35.262Z,4.80
2023-05-11T01:37:16.917Z,5.60
2023-05-11T01:39:58.665Z,8.90
2023-05-11T01:42:35.735Z,9.60
2023-05-11T01:45:06.296Z,4.60
2023-05-11T01:47:34.793Z,3.90
2023-05-11T01:50:04.435Z,5.10
2023-05-11T01:52:32.825Z,5.80
2023-05-11T01:55:06.157Z,4.30
2023-05-11T01:57:36.890Z,4.30
2023-05-11T02:00:06.943Z,4.40
2023-05-11T02:02:40.766Z,4.50
2023-05-11T02:05:10.149Z,6.00
2023-05-11T02:07:42.549Z,7.90
2023-05-11T02:10:12.969Z,5.90
2023-05-11T02:12:46.191Z,6.50
2023-05-11T02:15:21.726Z,6.80
2023-05-11T02:17:56.687Z,6.90
2023-05-11T02:20:24.745Z,6.70
2023-05-11T02:22:55.088Z,5.20
2023-05-11T02:25:45.449Z,5.70
2023-05-11T02:28:16.968Z,5.60
2023-05-11T02:31:05.956Z,5.40
2023-05-11T02:33:46.479Z,5.60
2023-05-11T02:36:16.812Z,5.70
2023-05-11T02:38:50.473Z,6.40
2023-05-11T02:41:25.681Z,7.00
2023-05-11T02:43:55.375Z,6.30
2023-05-11T02:46:45.645Z,5.50
2023-05-11T02:49:18.175Z,6.40
2023-05-11T02:52:05.595Z,6.10
2023-05-11T02:54:37.526Z,6.60
2023-05-11T02:57:07.048Z,6.30
2023-05-11T02:59:36.879Z,6.70
2023-05-11T03:02:18.863Z,6.40
2023-05-11T03:04:49.854Z,6.00
2023-05-11T03:07:23.885Z,6.20
2023-05-11T03:09:52.002Z,6.20
2023-05-11T03:12:24.190Z,7.00
2023-05-11T03:14:52.628Z,5.30
2023-05-11T03:17:39.958Z,5.50
2023-05-11T03:20:11.327Z,5.70
2023-05-11T03:22:43.134Z,5.60
2023-05-11T03:25:15.230Z,4.80
2023-05-11T03:27:45.781Z,4.90
2023-05-11T03:30:19.742Z,5.70
2023-05-11T03:33:02.171Z,4.40
2023-05-11T03:35:35.512Z,5.00
2023-05-11T03:38:06.578Z,5.20
2023-05-11T03:40:37.984Z,5.90
2023-05-11T03:43:06.883Z,6.40
2023-05-11T03:45:42.112Z,5.70
2023-05-11T03:48:15.565Z,5.50
2023-05-11T03:50:43.488Z,5.10
2023-05-11T03:53:11.370Z,6.40
2023-05-11T03:55:38.340Z,6.40
2023-05-11T03:58:08.103Z,6.40
2023-05-11T04:00:42.846Z,7.50
2023-05-11T04:03:14.105Z,6.90
2023-05-11T04:05:50.344Z,7.20
2023-05-11T04:08:38.474Z,7.90
2023-05-11T04:11:07.425Z,7.20
2023-05-11T04:13:35.432Z,7.00
2023-05-11T04:16:02.756Z,8.00
2023-05-11T04:18:30.469Z,6.60
2023-05-11T04:20:57.945Z,8.30
2023-05-11T04:23:26.417Z,8.10
2023-05-11T04:25:55.382Z,7.20
2023-05-11T04:28:29.228Z,7.50
2023-05-11T04:30:59.246Z,8.80
2023-05-11T04:33:26.371Z,7.00
2023-05-11T04:36:07.789Z,7.80
2023-05-11T04:38:35.077Z,7.70
2023-05-11T04:41:04.546Z,8.30
2023-05-11T04:43:32.906Z,8.70
2023-05-11T04:46:01.722Z,7.50
2023-05-11T04:48:36.037Z,7.80
2023-05-11T04:51:12.037Z,7.70
2023-05-11T04:53:42.522Z,6.90
2023-05-11T04:56:12.744Z,7.50
2023-05-11T04:58:39.637Z,6.70
2023-05-11T05:01:07.263Z,6.80
2023-05-11T05:03:36.565Z,6.40
2023-05-11T05:06:05.894Z,5.80
2023-05-11T05:08:33.483Z,6.70
2023-05-11T05:11:02.804Z,7.20
2023-05-11T05:13:30.835Z,6.90
2023-05-11T05:15:57.803Z,7.10
2023-05-11T05:18:26.288Z,7.50
2023-05-11T05:32:21.955Z,6.30
2023-05-11T05:34:48.776Z,6.00
2023-05-11T05:37:26.094Z,5.10
2023-05-11T05:39:53.076Z,5.60
2023-05-11T05:42:23.078Z,5.40
2023-05-11T05:44:50.853Z,5.30
2023-05-11T05:47:20.894Z,5.70
2023-05-11T05:50:25.530Z,5.20
2023-05-11T05:53:34.349Z,4.80
2023-05-11T05:56:07.892Z,5.10
2023-05-11T05:58:40.733Z,4.80
2023-05-11T06:01:52.313Z,4.00
2023-05-11T06:04:54.682Z,4.00
2023-05-11T06:08:35.065Z,3.90
2023-05-11T06:11:25.250Z,3.70
2023-05-11T06:13:52.083Z,4.00
2023-05-11T06:16:19.651Z,3.60
2023-05-11T06:18:47.597Z,4.00
2023-05-11T06:21:16.228Z,3.50
2023-05-11T06:23:43.070Z,3.30
2023-05-11T06:26:11.188Z,3.30
2023-05-11T06:28:38.252Z,3.10
2023-05-11T06:31:15.808Z,3.40
2023-05-11T06:34:09.062Z,3.20
2023-05-11T06:36:38.607Z,3.30
2023-05-11T06:39:28.941Z,3.50
2023-05-11T06:42:06.782Z,3.10
2023-05-11T06:45:30.200Z,3.00
2023-05-11T06:48:00.016Z,3.80
2023-05-11T06:50:27.801Z,3.00
2023-05-11T06:53:06.282Z,2.70
2023-05-11T06:58:44.121Z,3.30
2023-05-11T07:04:54.005Z,3.20
2023-05-11T07:07:50.441Z,3.20
2023-05-11T07:12:15.242Z,3.20
2023-05-11T07:20:00.236Z,2.80
2023-05-11T07:23:29.708Z,2.80
2023-05-11T07:30:43.279Z,2.40
2023-05-11T07:33:29.567Z,2.40
2023-05-11T07:36:37.747Z,2.70
2023-05-11T07:39:47.326Z,2.50
2023-05-11T07:42:45.373Z,2.80
2023-05-11T07:46:15.304Z,3.00
2023-05-11T07:49:18.632Z,2.80
2023-05-11T07:52:16.843Z,3.20
2023-05-11T07:54:48.680Z,3.20
2023-05-11T07:57:25.610Z,2.50
2023-05-11T08:00:27.561Z,2.50
2023-05-11T08:45:23.064Z,1.90
2023-05-11T08:48:23.126Z,2.10
2023-05-11T08:51:08.075Z,2.00
2023-05-11T08:53:39.789Z,2.20
2023-05-11T08:56:12.808Z,1.80
2023-05-11T08:58:42.236Z,2.00
2023-05-11T09:01:18.620Z,2.60
2023-05-11T09:04:00.156Z,2.20
2023-05-11T09:06:46.955Z,1.60
2023-05-11T09:09:22.745Z,2.10
2023-05-11T09:13:08.078Z,2.20
2023-05-11T09:15:37.046Z,2.10
2023-05-11T09:18:15.772Z,1.90
2023-05-11T09:21:02.074Z,2.20
2023-05-11T09:23:48.485Z,2.00
2023-05-11T09:30:33.166Z,1.70
2023-05-11T09:30:45.305Z,1.60
2023-05-11T09:33:05.411Z,2.00
2023-05-11T09:35:42.292Z,1.90
2023-05-11T09:38:31.359Z,2.10
2023-05-11T09:41:06.158Z,2.00
2023-05-11T09:43:32.908Z,1.70
2023-05-11T09:46:06.500Z,1.90
2023-05-11T09:48:34.588Z,1.80
2023-05-11T09:51:05.340Z,1.50
2023-05-11T09:53:47.481Z,1.80
2023-05-11T09:56:15.101Z,1.90
2023-05-11T09:58:49.776Z,1.60
2023-05-11T10:01:18.761Z,1.50
2023-05-11T10:03:56.274Z,1.60
2023-05-11T10:06:27.963Z,2.50
2023-05-11T10:08:54.725Z,1.60
2023-05-11T10:11:24.770Z,1.60
2023-05-11T10:13:55.210Z,2.10
2023-05-11T10:16:33.792Z,1.70
2023-05-11T10:26:20.180Z,1.30
2023-05-11T10:28:47.989Z,1.60
2023-05-11T10:31:17.802Z,1.50
2023-05-11T10:33:56.579Z,1.20
2023-05-11T10:36:41.072Z,1.60
2023-05-11T10:39:14.382Z,1.30
2023-05-11T10:42:09.578Z,1.10
2023-05-11T10:45:03.861Z,1.30
2023-05-11T10:48:07.574Z,1.20
2023-05-11T10:51:09.559Z,1.20
2023-05-11T10:54:17.608Z,1.30
2023-05-11T10:57:24.398Z,1.30
2023-05-11T11:00:42.888Z,1.20
2023-05-11T11:03:15.712Z,1.30
2023-05-11T11:05:59.992Z,1.30
2023-05-11T11:08:30.262Z,1.20
2023-05-11T11:11:00.130Z,1.40
2023-05-11T11:13:28.915Z,1.20
2023-05-11T11:16:18.445Z,1.60
2023-05-11T11:18:48.281Z,1.30
2023-05-11T11:21:42.403Z,1.80
2023-05-11T11:24:29.431Z,1.80
2023-05-11T11:26:56.871Z,1.30
2023-05-11T11:29:24.192Z,2.00
2023-05-11T11:31:52.146Z,1.30
2023-05-11T11:34:33.260Z,1.60
2023-05-11T11:37:08.195Z,1.40
2023-05-11T11:39:50.843Z,1.70
2023-05-11T11:49:32.968Z,1.50
2023-05-11T11:52:30.435Z,1.30
2023-05-11T11:55:27.521Z,1.70
2023-05-11T11:59:11.185Z,1.50
2023-05-11T12:01:52.649Z,1.40
2023-05-11T12:04:51.208Z,2.60
2023-05-11T12:07:27.550Z,1.20
2023-05-11T12:10:11.019Z,1.30
2023-05-11T12:13:03.535Z,1.50
2023-05-11T12:16:40.310Z,1.70
2023-05-11T12:19:11.907Z,1.10
2023-05-11T12:21:54.860Z,1.40
2023-05-11T12:25:28.467Z,1.70
2023-05-11T12:28:00.029Z,1.60
2023-05-11T12:30:30.583Z,1.10
2023-05-11T12:33:02.716Z,1.20
2023-05-11T12:35:35.208Z,1.40
2023-05-11T12:38:02.715Z,0.90
2023-05-11T12:40:35.227Z,1.10
2023-05-11T12:43:30.481Z,1.30
2023-05-11T12:46:04.315Z,1.20
2023-05-11T12:48:36.675Z,1.60
2023-05-11T12:51:05.342Z,1.50
2023-05-11T12:53:43.438Z,1.40
2023-05-11T13:04:00.762Z,1.10
2023-05-11T13:06:52.199Z,1.30
2023-05-11T13:11:32.140Z,1.40
2023-05-11T13:14:37.806Z,1.70
2023-05-11T13:17:53.716Z,1.20
2023-05-11T13:22:08.236Z,1.30
2023-05-11T13:24:35.003Z,1.20
2023-05-11T13:27:29.336Z,1.10
2023-05-11T13:30:21.829Z,1.00
2023-05-11T13:34:00.568Z,1.40
2023-05-11T13:37:16.352Z,1.30
2023-05-11T13:41:18.920Z,1.20
2023-05-11T13:43:51.598Z,1.30
2023-05-11T13:46:42.901Z,1.30
2023-05-11T13:49:26.729Z,1.30
2023-05-11T13:54:24.609Z,1.20
2023-05-11T13:59:41.739Z,1.50
2023-05-11T14:03:00.629Z,0.90
2023-05-11T14:06:21.495Z,1.40
2023-05-11T14:07:47.212Z,0.90
2023-05-11T14:08:50.351Z,1.40
2023-05-11T14:11:17.815Z,1.40
2023-05-11T14:13:48.243Z,1.20
2023-05-11T14:16:17.589Z,1.20
2023-05-11T14:18:46.419Z,1.10
2023-05-11T14:21:22.007Z,1.10
2023-05-11T14:24:06.010Z,1.10
2023-05-11T14:26:37.151Z,1.20
2023-05-11T14:29:05.094Z,1.00
2023-05-11T14:31:34.081Z,1.10
2023-05-11T14:34:01.023Z,0.90
2023-05-11T14:36:27.972Z,1.00
2023-05-11T14:38:55.309Z,1.10
2023-05-11T14:41:23.940Z,1.00
2023-05-11T14:43:50.780Z,1.30
2023-05-11T14:46:17.473Z,1.40
2023-05-11T14:48:45.358Z,1.10
2023-05-11T14:51:11.868Z,1.00
2023-05-11T14:53:39.134Z,1.10
2023-05-11T14:56:08.154Z,1.30
2023-05-11T14:59:26.639Z,1.50
2023-05-11T15:01:53.999Z,1.20
2023-05-11T15:04:21.414Z,1.10
2023-05-11T15:06:48.141Z,1.30
2023-05-11T15:09:14.751Z,1.10
2023-05-11T15:11:41.298Z,1.30
2023-05-11T15:14:48.595Z,1.40
2023-05-11T15:17:15.196Z,1.70
2023-05-11T15:19:41.606Z,1.30
2023-05-11T15:22:11.176Z,1.00
2023-05-11T15:24:40.819Z,1.20
2023-05-11T15:27:12.692Z,1.10
2023-05-11T15:29:45.147Z,1.00
2023-05-11T15:32:18.099Z,1.00
2023-05-11T15:34:59.273Z,0.90
2023-05-11T15:38:08.490Z,1.10
2023-05-11T15:40:54.587Z,1.20
2023-05-11T15:43:30.604Z,0.90
2023-05-11T15:45:57.105Z,1.30
2023-05-11T15:48:23.526Z,1.30
2023-05-11T15:50:49.864Z,1.40
2023-05-11T15:53:17.390Z,1.10
2023-05-11T15:55:45.597Z,1.10
2023-05-11T15:58:12.147Z,1.00
2023-05-11T16:00:38.604Z,1.10
2023-05-11T16:03:08.500Z,1.10
2023-05-11T16:05:37.715Z,1.20
2023-05-11T16:08:06.041Z,1.50
2023-05-11T16:10:32.798Z,1.50
2023-05-11T16:12:59.431Z,1.50
2023-05-11T16:15:30.647Z,1.20
2023-05-11T16:17:57.717Z,1.00
2023-05-11T16:20:24.245Z,1.70
2023-05-11T16:22:50.654Z,1.00
2023-05-11T16:25:17.232Z,1.40
2023-05-11T16:27:44.056Z,1.20
2023-05-11T16:30:22.260Z,1.10
2023-05-11T16:32:51.698Z,1.00
2023-05-11T16:35:18.255Z,0.90
2023-05-11T16:37:45.996Z,1.00
2023-05-11T16:40:12.527Z,1.20
2023-05-11T16:42:39.027Z,1.50
2023-05-11T16:45:06.144Z,1.30
2023-05-11T16:47:32.605Z,1.00
2023-05-11T16:49:59.289Z,1.10
2023-05-11T16:52:25.672Z,1.10
2023-05-11T16:54:52.095Z,1.30
2023-05-11T16:57:18.534Z,1.20
2023-05-11T16:59:44.923Z,1.30
2023-05-11T17:02:11.451Z,1.00
2023-05-11T17:04:38.075Z,1.00
2023-05-11T17:07:04.783Z,1.10
2023-05-11T17:09:31.130Z,2.60
2023-05-11T17:11:57.533Z,2.30
2023-05-11T17:14:24.036Z,1.90
2023-05-11T17:16:50.430Z,1.60
2023-05-11T17:19:17.085Z,2.00
2023-05-11T17:21:44.279Z,1.80
2023-05-11T17:24:10.753Z,1.80
2023-05-11T17:26:47.236Z,2.50
2023-05-11T17:29:16.307Z,1.80
2023-05-11T17:31:45.584Z,2.40
2023-05-11T17:34:12.251Z,1.90
2023-05-11T17:36:38.870Z,1.30
2023-05-11T17:39:05.316Z,1.10
2023-05-11T17:41:31.682Z,1.30
2023-05-11T17:43:58.090Z,1.30
2023-05-11T17:46:24.547Z,1.40
2023-05-11T17:48:52.231Z,1.20
2023-05-11T17:51:19.816Z,1.10
2023-05-11T17:53:46.627Z,1.20
2023-05-11T17:56:13.354Z,1.20
2023-05-11T17:58:39.945Z,1.40
2023-05-11T18:01:08.343Z,1.10
2023-05-11T18:03:35.065Z,1.40
2023-05-11T18:06:01.961Z,1.20
2023-05-11T18:08:28.347Z,1.20
2023-05-11T18:10:54.901Z,1.30
2023-05-11T18:13:22.122Z,1.40
2023-05-11T18:15:48.599Z,1.30
2023-05-11T18:18:17.135Z,1.40
2023-05-11T18:20:45.719Z,1.40
2023-05-11T18:23:13.107Z,1.60
2023-05-11T18:25:39.586Z,1.40
2023-05-11T18:28:06.043Z,1.40
2023-05-11T18:30:33.700Z,1.30
2023-05-11T18:33:00.976Z,1.20
2023-05-11T18:35:27.471Z,1.40
2023-05-11T18:37:54.289Z,1.40
2023-05-11T18:40:21.430Z,1.40
2023-05-11T18:42:48.079Z,1.20
2023-05-11T18:45:14.635Z,1.10
2023-05-11T18:47:45.454Z,1.50
2023-05-11T18:50:12.001Z,1.40
2023-05-11T18:52:38.410Z,1.50
2023-05-11T18:55:05.292Z,1.20
2023-05-11T18:57:33.515Z,1.70
2023-05-11T19:00:00.332Z,1.60
2023-05-11T19:02:26.912Z,1.40
2023-05-11T19:04:53.316Z,1.60
2023-05-11T19:07:20.403Z,1.60
2023-05-11T19:09:47.255Z,1.80
2023-05-11T19:12:13.752Z,1.40
2023-05-11T19:14:40.390Z,1.60
2023-05-11T19:17:06.874Z,1.50
2023-05-11T19:19:33.468Z,1.30
2023-05-11T19:22:00.040Z,1.70
2023-05-11T19:24:26.876Z,1.70
2023-05-11T19:27:06.642Z,1.60
2023-05-11T19:29:34.519Z,1.60
2023-05-11T19:32:00.988Z,1.30
2023-05-11T19:34:27.775Z,1.80
2023-05-11T19:36:54.173Z,1.90
2023-05-11T19:39:20.568Z,2.10
2023-05-11T19:41:46.984Z,2.20
2023-05-11T19:44:13.764Z,1.80
2023-05-11T19:46:51.451Z,1.70
2023-05-11T19:49:18.000Z,1.60
2023-05-11T19:51:44.523Z,1.50
2023-05-11T19:54:11.332Z,1.80
2023-05-11T19:56:38.595Z,2.00
2023-05-11T19:59:05.042Z,1.80
2023-05-11T20:01:31.641Z,1.80
2023-05-11T20:03:58.920Z,1.70
2023-05-11T20:06:25.668Z,1.80
2023-05-11T20:08:52.327Z,1.90
2023-05-11T20:11:18.856Z,1.80
2023-05-11T20:13:47.007Z,1.80
2023-05-11T20:16:13.538Z,1.80
2023-05-11T20:18:40.127Z,1.80
2023-05-11T20:21:06.578Z,2.00
2023-05-11T20:23:33.877Z,2.10
2023-05-11T20:26:02.269Z,1.60
2023-05-11T20:28:28.720Z,1.80
2023-05-11T20:30:55.610Z,1.70
2023-05-11T20:35:53.373Z,2.00
2023-05-11T20:38:20.424Z,1.60
2023-05-11T20:40:46.917Z,2.20
2023-05-11T20:43:14.733Z,1.90
2023-05-11T20:45:43.806Z,1.50
2023-05-11T20:48:10.372Z,1.90
2023-05-11T20:50:38.574Z,2.00
2023-05-11T20:53:05.385Z,1.80
2023-05-11T20:55:31.820Z,1.60
2023-05-11T20:57:58.398Z,1.90
2023-05-11T21:00:25.205Z,1.70
2023-05-11T21:02:52.018Z,1.90
2023-05-11T21:05:18.803Z,1.80
2023-05-11T21:07:45.351Z,1.60
2023-05-11T21:10:12.105Z,2.10
2023-05-11T21:12:38.712Z,1.90
2023-05-11T21:15:06.674Z,2.00
2023-05-11T21:17:33.561Z,2.30
2023-05-11T21:20:02.436Z,1.80
2023-05-11T21:22:28.910Z,1.80
2023-05-11T21:24:55.384Z,1.80
2023-05-11T21:27:21.931Z,2.40
2023-05-11T21:29:56.096Z,1.90
2023-05-11T21:32:23.365Z,2.00
2023-05-11T21:34:50.218Z,2.00
2023-05-11T21:37:19.514Z,2.20
2023-05-11T21:39:47.458Z,1.90
2023-05-11T21:42:13.991Z,1.80
2023-05-11T21:44:40.476Z,2.40
2023-05-11T21:47:07.057Z,2.00
2023-05-11T21:49:35.509Z,2.20
2023-05-11T21:52:02.292Z,2.10
2023-05-11T21:54:28.673Z,2.10
2023-05-11T21:56:55.184Z,2.20
2023-05-11T21:59:25.850Z,2.20
2023-05-11T22:01:53.948Z,2.20
2023-05-11T22:04:20.361Z,2.00
2023-05-11T22:06:46.828Z,2.10
2023-05-11T22:09:13.317Z,2.00
2023-05-11T22:11:39.856Z,2.00
2023-05-11T22:14:06.394Z,1.90
2023-05-11T22:16:32.870Z,2.00
2023-05-11T22:18:59.450Z,2.00
2023-05-11T22:21:27.230Z,2.10
2023-05-11T22:23:53.615Z,2.00
2023-05-11T22:26:20.174Z,2.00
2023-05-11T22:28:47.012Z,2.30
2023-05-11T22:31:13.450Z,2.30
2023-05-11T22:33:40.395Z,2.30
2023-05-11T22:36:07.749Z,1.70
2023-05-11T22:38:36.750Z,2.20
2023-05-11T22:41:04.441Z,1.90
2023-05-11T22:43:31.171Z,2.10
2023-05-11T22:45:57.655Z,2.10
2023-05-11T22:48:24.193Z,2.10
2023-05-11T22:50:50.653Z,2.20
2023-05-11T22:53:19.464Z,2.20
2023-05-11T22:55:46.744Z,2.30
2023-05-11T22:58:13.283Z,2.20
2023-05-11T23:00:39.838Z,2.30
2023-05-11T23:03:07.422Z,2.10
2023-05-11T23:05:34.133Z,1.90
2023-05-11T23:08:02.349Z,2.10
2023-05-11T23:10:29.002Z,2.40
2023-05-11T23:12:55.701Z,2.20
2023-05-11T23:15:22.093Z,2.20
2023-05-11T23:17:48.647Z,2.30
2023-05-11T23:20:15.817Z,2.70
2023-05-11T23:22:42.297Z,2.80
2023-05-11T23:25:09.681Z,2.50
2023-05-11T23:27:36.096Z,2.70
2023-05-11T23:30:03.243Z,2.50
2023-05-11T23:32:29.826Z,2.90
2023-05-11T23:34:56.279Z,2.40
2023-05-11T23:37:23.069Z,2.50
2023-05-11T23:39:49.874Z,2.40
2023-05-11T23:42:16.445Z,3.00
2023-05-11T23:44:43.412Z,2.90
2023-05-11T23:47:09.954Z,2.30
2023-05-11T23:49:36.805Z,2.90
2023-05-11T23:52:04.102Z,2.50
2023-05-11T23:54:30.501Z,3.00
2023-05-11T23:56:56.849Z,2.40
2023-05-11T23:59:23.201Z,2.90
